Time;durP1;ratioP1;P1;durP2;ratioP2;P2;SDS_P1;SDS_P2;PMS_P1;PMS_P2;Temp;Humidity;BMP_temperature;BMP_pressure;BME280_temperature;BME280_humidity;BME280_pressure;Samples;Min_cycle;Max_cycle;Signal;HPM_P1;HPM_P2
2022/05/17 00:02:19;;;;;;;4.90;2.83;;;;;;;;;;5098468;28;20665;-72
2022/05/17 00:04:47;;;;;;;5.60;2.10;;;;;;;;;;5098755;28;20243;-72
2022/05/17 00:07:17;;;;;;;6.07;2.53;;;;;;;;;;5098806;28;20260;-72
2022/05/17 00:09:45;;;;;;;5.37;2.43;;;;;;;;;;5098600;28;20258;-72
2022/05/17 00:12:13;;;;;;;5.77;2.90;;;;;;;;;;5098711;28;20243;-72
2022/05/17 00:14:41;;;;;;;6.23;2.87;;;;;;;;;;5098893;28;20251;-72
2022/05/17 00:17:09;;;;;;;6.73;3.10;;;;;;;;;;5098021;28;20280;-72
2022/05/17 00:19:38;;;;;;;3.60;2.27;;;;;;;;;;5098376;28;20584;-71
2022/05/17 00:22:08;;;;;;;5.93;3.07;;;;;;;;;;5098457;28;20205;-72
2022/05/17 00:24:37;;;;;;;5.00;3.10;;;;;;;;;;5098482;28;20237;-72
2022/05/17 00:27:06;;;;;;;5.07;3.10;;;;;;;;;;5098238;28;20253;-72
2022/05/17 00:29:34;;;;;;;6.57;3.17;;;;;;;;;;5098502;28;20233;-72
2022/05/17 00:32:03;;;;;;;5.83;3.53;;;;;;;;;;5098184;28;20244;-72
2022/05/17 00:34:31;;;;;;;4.57;2.93;;;;;;;;;;5097955;28;20206;-72
2022/05/17 00:36:59;;;;;;;5.40;3.20;;;;;;;;;;5097633;28;20223;-75
2022/05/17 00:39:27;;;;;;;7.17;3.53;;;;;;;;;;5095211;28;20239;-75
2022/05/17 00:41:57;;;;;;;5.03;3.40;;;;;;;;;;5097507;28;20229;-75
2022/05/17 00:47:13;;;;;;;6.33;3.60;;;;;;;;;;5095089;28;20266;-74
2022/05/17 00:49:43;;;;;;;5.20;2.90;;;;;;;;;;5097062;28;20197;-75
2022/05/17 00:52:13;;;;;;;5.13;3.13;;;;;;;;;;5097251;28;20203;-73
2022/05/17 00:54:43;;;;;;;5.83;3.47;;;;;;;;;;5097294;28;20225;-74
2022/05/17 00:57:15;;;;;;;7.37;3.30;;;;;;;;;;5098126;28;20223;-73
2022/05/17 00:59:44;;;;;;;4.47;2.93;;;;;;;;;;5097869;28;20214;-73
2022/05/17 01:02:13;;;;;;;5.73;3.10;;;;;;;;;;5097619;28;20230;-73
2022/05/17 01:04:41;;;;;;;4.70;2.90;;;;;;;;;;5098051;28;20219;-73
2022/05/17 01:07:11;;;;;;;6.77;3.13;;;;;;;;;;5097906;28;20271;-72
2022/05/17 01:09:39;;;;;;;4.57;3.13;;;;;;;;;;5097788;28;20200;-72
2022/05/17 01:12:08;;;;;;;4.97;2.97;;;;;;;;;;5094739;28;20210;-73
2022/05/17 01:17:23;;;;;;;6.17;2.47;;;;;;;;;;5096585;28;20223;-73
2022/05/17 01:19:51;;;;;;;5.73;2.80;;;;;;;;;;5096689;28;20223;-73
2022/05/17 01:22:21;;;;;;;3.33;2.60;;;;;;;;;;5096204;28;20688;-72
2022/05/17 01:24:49;;;;;;;5.50;2.93;;;;;;;;;;5094918;28;20232;-73
2022/05/17 01:27:19;;;;;;;5.83;2.70;;;;;;;;;;5097515;28;20260;-73
2022/05/17 01:29:48;;;;;;;3.87;3.00;;;;;;;;;;5096926;28;20209;-73
2022/05/17 01:32:16;;;;;;;6.73;3.20;;;;;;;;;;5096979;28;20203;-73
2022/05/17 01:34:44;;;;;;;5.57;3.50;;;;;;;;;;5096396;28;20608;-72
2022/05/17 01:37:13;;;;;;;9.17;3.33;;;;;;;;;;5096431;28;20221;-73
2022/05/17 01:39:44;;;;;;;11.83;3.60;;;;;;;;;;5096190;28;20238;-72
2022/05/17 01:42:13;;;;;;;9.60;3.90;;;;;;;;;;5096640;28;20216;-72
2022/05/17 01:44:43;;;;;;;8.67;3.70;;;;;;;;;;5096713;28;20267;-72
2022/05/17 01:47:12;;;;;;;7.80;3.60;;;;;;;;;;5094106;28;20230;-73
2022/05/17 01:49:40;;;;;;;7.13;4.03;;;;;;;;;;5096908;28;20236;-73
2022/05/17 01:52:08;;;;;;;9.13;4.10;;;;;;;;;;5096866;28;20556;-72
2022/05/17 01:54:36;;;;;;;6.73;3.87;;;;;;;;;;5097069;28;20215;-72
2022/05/17 01:57:06;;;;;;;6.80;4.30;;;;;;;;;;5096925;28;20256;-73
2022/05/17 01:59:35;;;;;;;6.80;3.40;;;;;;;;;;5097305;28;20289;-73
2022/05/17 02:02:03;;;;;;;7.30;3.43;;;;;;;;;;5099221;28;20239;-72
2022/05/17 02:04:31;;;;;;;12.73;3.60;;;;;;;;;;5101294;28;20212;-73
2022/05/17 02:07:06;;;;;;;11.43;4.17;;;;;;;;;;5101226;28;20254;-73
2022/05/17 02:09:34;;;;;;;8.97;3.63;;;;;;;;;;5100993;28;20290;-74
2022/05/17 02:12:03;;;;;;;8.60;3.47;;;;;;;;;;5101216;28;20234;-75
2022/05/17 02:14:32;;;;;;;5.80;3.17;;;;;;;;;;5101218;28;20262;-74
2022/05/17 02:17:00;;;;;;;8.53;3.50;;;;;;;;;;5100231;28;20768;-72
2022/05/17 02:19:30;;;;;;;8.17;3.50;;;;;;;;;;5101089;28;20241;-72
2022/05/17 02:21:58;;;;;;;6.63;3.40;;;;;;;;;;5100546;28;20280;-72
2022/05/17 02:24:27;;;;;;;6.00;3.50;;;;;;;;;;5100780;28;20245;-72
2022/05/17 02:26:55;;;;;;;4.53;3.50;;;;;;;;;;5100658;28;20229;-73
2022/05/17 02:29:23;;;;;;;6.97;3.33;;;;;;;;;;5100765;28;20681;-74
2022/05/17 02:31:53;;;;;;;3.93;3.10;;;;;;;;;;5100634;28;20233;-74
2022/05/17 02:34:21;;;;;;;6.80;3.47;;;;;;;;;;5100499;28;20730;-74
2022/05/17 02:36:49;;;;;;;7.33;3.63;;;;;;;;;;5100534;28;20229;-74
2022/05/17 02:39:17;;;;;;;4.77;3.27;;;;;;;;;;5100309;28;20711;-74
2022/05/17 02:41:45;;;;;;;5.80;3.20;;;;;;;;;;5100662;28;20293;-74
2022/05/17 02:44:14;;;;;;;7.33;3.67;;;;;;;;;;5100071;28;20319;-74
2022/05/17 02:46:42;;;;;;;4.90;3.70;;;;;;;;;;5099942;28;20247;-74
2022/05/17 02:49:12;;;;;;;8.57;3.47;;;;;;;;;;5100341;28;20253;-74
2022/05/17 02:51:40;;;;;;;7.90;3.43;;;;;;;;;;5100105;28;20202;-74
2022/05/17 02:54:10;;;;;;;6.10;3.53;;;;;;;;;;5099906;28;20237;-74
2022/05/17 02:56:38;;;;;;;7.97;3.10;;;;;;;;;;5100039;28;20263;-74
2022/05/17 02:59:06;;;;;;;6.50;3.23;;;;;;;;;;5100287;28;20240;-74
2022/05/17 03:01:34;;;;;;;11.77;4.20;;;;;;;;;;5099628;28;20273;-74
2022/05/17 03:04:02;;;;;;;6.93;3.43;;;;;;;;;;5100058;28;20209;-74
2022/05/17 03:06:32;;;;;;;6.60;3.93;;;;;;;;;;5099837;28;20589;-71
2022/05/17 03:09:00;;;;;;;5.60;3.87;;;;;;;;;;5099709;28;20240;-71
2022/05/17 03:11:28;;;;;;;10.90;4.60;;;;;;;;;;5099366;28;20566;-72
2022/05/17 03:13:56;;;;;;;8.63;4.10;;;;;;;;;;5099537;28;20644;-71
2022/05/17 03:16:28;;;;;;;6.43;4.30;;;;;;;;;;5097249;28;20275;-72
2022/05/17 03:18:57;;;;;;;9.53;5.33;;;;;;;;;;5097583;28;20206;-72
2022/05/17 03:21:25;;;;;;;12.00;4.47;;;;;;;;;;5099081;28;20286;-73
2022/05/17 03:23:54;;;;;;;10.63;4.67;;;;;;;;;;5098336;28;20310;-74
2022/05/17 03:26:22;;;;;;;7.40;4.30;;;;;;;;;;5099304;28;20658;-74
2022/05/17 03:28:50;;;;;;;8.73;4.40;;;;;;;;;;5099564;28;20692;-74
2022/05/17 03:31:18;;;;;;;14.97;5.27;;;;;;;;;;5099107;28;20306;-74
2022/05/17 03:33:46;;;;;;;9.17;4.43;;;;;;;;;;5099538;28;20213;-74
2022/05/17 03:36:14;;;;;;;7.83;5.00;;;;;;;;;;5098109;28;20218;-73
2022/05/17 03:38:42;;;;;;;14.57;5.30;;;;;;;;;;5098763;28;20231;-73
2022/05/17 03:41:12;;;;;;;11.73;5.27;;;;;;;;;;5098649;28;20260;-73
2022/05/17 03:43:40;;;;;;;10.37;4.77;;;;;;;;;;5098531;28;20634;-73
2022/05/17 03:46:08;;;;;;;11.90;5.33;;;;;;;;;;5097967;28;20246;-73
2022/05/17 03:48:37;;;;;;;10.93;5.13;;;;;;;;;;5096277;28;20733;-73
2022/05/17 03:51:11;;;;;;;8.50;4.37;;;;;;;;;;5098289;28;20616;-73
2022/05/17 03:53:39;;;;;;;5.53;3.97;;;;;;;;;;5096517;28;20204;-72
2022/05/17 03:56:08;;;;;;;8.87;4.67;;;;;;;;;;5098400;28;20226;-73
2022/05/17 03:58:37;;;;;;;9.13;4.20;;;;;;;;;;5095951;28;20226;-65
2022/05/17 04:01:07;;;;;;;7.93;4.90;;;;;;;;;;5097982;28;20268;-64
2022/05/17 04:03:36;;;;;;;10.70;4.03;;;;;;;;;;5099047;28;20237;-65
2022/05/17 04:06:05;;;;;;;7.93;4.50;;;;;;;;;;5098625;28;20233;-65
2022/05/17 04:08:33;;;;;;;12.67;4.53;;;;;;;;;;5095408;28;20208;-65
2022/05/17 04:11:01;;;;;;;10.47;4.27;;;;;;;;;;5098011;28;20227;-64
2022/05/17 04:13:31;;;;;;;7.03;4.13;;;;;;;;;;5098364;28;20209;-66
2022/05/17 04:16:01;;;;;;;8.07;4.37;;;;;;;;;;5098371;28;20256;-65
2022/05/17 04:18:30;;;;;;;10.37;4.47;;;;;;;;;;5098179;28;20283;-65
2022/05/17 04:20:58;;;;;;;7.57;4.10;;;;;;;;;;5098612;28;20239;-65
2022/05/17 04:23:26;;;;;;;7.87;3.67;;;;;;;;;;5097285;28;20674;-65
2022/05/17 04:25:54;;;;;;;9.77;5.10;;;;;;;;;;5098624;28;20229;-65
2022/05/17 04:28:22;;;;;;;11.90;4.90;;;;;;;;;;5098135;28;20244;-65
2022/05/17 04:30:51;;;;;;;10.57;4.70;;;;;;;;;;5098016;28;20244;-64
2022/05/17 04:33:21;;;;;;;7.07;4.47;;;;;;;;;;5098171;28;20627;-64
2022/05/17 04:35:49;;;;;;;9.17;4.40;;;;;;;;;;5098341;28;20256;-64
2022/05/17 04:38:17;;;;;;;11.10;5.73;;;;;;;;;;5098185;28;20233;-65
2022/05/17 04:40:45;;;;;;;6.30;3.90;;;;;;;;;;5098161;28;20233;-73
2022/05/17 04:43:13;;;;;;;7.67;3.80;;;;;;;;;;5098131;28;20260;-73
2022/05/17 04:45:44;;;;;;;6.53;3.67;;;;;;;;;;5097126;28;20655;-73
2022/05/17 04:48:12;;;;;;;7.47;4.33;;;;;;;;;;5097644;28;20247;-73
2022/05/17 04:50:41;;;;;;;6.87;3.53;;;;;;;;;;5097774;28;20201;-71
2022/05/17 04:53:10;;;;;;;4.87;3.67;;;;;;;;;;5098051;28;20244;-72
2022/05/17 04:55:38;;;;;;;7.33;3.90;;;;;;;;;;5097698;28;20653;-72
2022/05/17 04:58:06;;;;;;;5.03;3.40;;;;;;;;;;5097917;28;20205;-72
2022/05/17 05:00:34;;;;;;;6.30;3.50;;;;;;;;;;5097588;28;20292;-72
2022/05/17 05:03:02;;;;;;;8.47;3.43;;;;;;;;;;5097639;28;20602;-72
2022/05/17 05:05:33;;;;;;;7.30;3.93;;;;;;;;;;5097703;28;20236;-72
2022/05/17 05:08:02;;;;;;;5.83;4.17;;;;;;;;;;5097500;28;20233;-72
2022/05/17 05:10:30;;;;;;;5.83;3.70;;;;;;;;;;5097601;28;20741;-72
2022/05/17 05:12:58;;;;;;;9.77;4.13;;;;;;;;;;5097723;28;20633;-72
2022/05/17 05:15:26;;;;;;;7.60;4.57;;;;;;;;;;5097509;28;20229;-72
2022/05/17 05:17:54;;;;;;;12.13;4.53;;;;;;;;;;5097629;28;20231;-73
2022/05/17 05:20:22;;;;;;;7.40;4.13;;;;;;;;;;5097795;28;20231;-72
2022/05/17 05:22:50;;;;;;;6.17;4.00;;;;;;;;;;5097572;28;20312;-72
2022/05/17 05:25:20;;;;;;;6.80;4.57;;;;;;;;;;5097591;28;20210;-73
2022/05/17 05:27:49;;;;;;;6.93;4.43;;;;;;;;;;5097749;28;20206;-72
2022/05/17 05:30:18;;;;;;;7.13;4.10;;;;;;;;;;5097031;28;20617;-67
2022/05/17 05:32:47;;;;;;;7.30;4.17;;;;;;;;;;5093696;28;20333;-66
2022/05/17 05:35:16;;;;;;;7.27;4.23;;;;;;;;;;5097769;28;20193;-66
2022/05/17 05:37:44;;;;;;;8.37;5.17;;;;;;;;;;5106254;28;20230;-66
2022/05/17 05:40:12;;;;;;;6.57;4.43;;;;;;;;;;5105043;28;20193;-66
2022/05/17 05:42:42;;;;;;;10.40;4.53;;;;;;;;;;5100763;28;20269;-66
2022/05/17 05:45:11;;;;;;;9.83;5.20;;;;;;;;;;5099802;28;20658;-67
2022/05/17 05:47:41;;;;;;;9.00;4.10;;;;;;;;;;5099761;28;20195;-66
2022/05/17 05:50:10;;;;;;;9.67;5.00;;;;;;;;;;5100736;28;20240;-66
2022/05/17 05:52:39;;;;;;;7.70;4.87;;;;;;;;;;5101100;28;20192;-66
2022/05/17 05:55:18;;;;;;;10.83;5.20;;;;;;;;;;5096770;28;20202;-66
2022/05/17 05:57:48;;;;;;;7.77;4.60;;;;;;;;;;5098194;28;20206;-66
2022/05/17 06:00:18;;;;;;;9.83;5.00;;;;;;;;;;5100986;28;20257;-65
2022/05/17 06:02:46;;;;;;;9.17;4.70;;;;;;;;;;5097637;28;20261;-66
2022/05/17 06:05:14;;;;;;;7.80;4.93;;;;;;;;;;5101012;28;20240;-66
2022/05/17 06:07:42;;;;;;;6.47;4.97;;;;;;;;;;5100841;28;20211;-66
2022/05/17 06:10:11;;;;;;;10.23;5.20;;;;;;;;;;5100887;28;20239;-66
2022/05/17 06:12:40;;;;;;;8.27;5.10;;;;;;;;;;5099244;28;20197;-66
2022/05/17 06:15:10;;;;;;;7.43;4.87;;;;;;;;;;5092889;28;20549;-66
2022/05/17 06:17:38;;;;;;;7.83;5.07;;;;;;;;;;5100421;28;20688;-66
2022/05/17 06:20:08;;;;;;;15.17;6.13;;;;;;;;;;5100634;28;20294;-66
2022/05/17 06:22:35;;;;;;;12.70;5.90;;;;;;;;;;5100312;28;20223;-66
2022/05/17 06:25:04;;;;;;;14.10;7.30;;;;;;;;;;5099551;28;20233;-66
2022/05/17 06:27:32;;;;;;;9.77;5.97;;;;;;;;;;5100353;28;20207;-67
2022/05/17 06:30:00;;;;;;;8.77;6.27;;;;;;;;;;5100038;28;20233;-67
2022/05/17 06:32:29;;;;;;;11.67;6.20;;;;;;;;;;5100108;28;20212;-67
2022/05/17 06:34:57;;;;;;;13.57;6.50;;;;;;;;;;5100345;28;20247;-67
2022/05/17 06:37:25;;;;;;;11.47;6.13;;;;;;;;;;5100390;28;20236;-67
2022/05/17 06:39:53;;;;;;;8.93;6.53;;;;;;;;;;5100084;28;20247;-66
2022/05/17 06:42:21;;;;;;;9.33;6.53;;;;;;;;;;5100120;28;20209;-67
2022/05/17 06:44:49;;;;;;;10.77;6.77;;;;;;;;;;5099704;28;20202;-68
2022/05/17 06:47:18;;;;;;;9.40;6.60;;;;;;;;;;5098959;28;20229;-67
2022/05/17 06:49:47;;;;;;;8.23;6.67;;;;;;;;;;5096894;28;20229;-67
2022/05/17 06:52:16;;;;;;;11.73;6.50;;;;;;;;;;5099604;28;20198;-66
2022/05/17 06:54:44;;;;;;;13.17;6.60;;;;;;;;;;5098976;28;20193;-66
2022/05/17 06:57:13;;;;;;;12.97;6.70;;;;;;;;;;5095000;28;20257;-67
2022/05/17 06:59:42;;;;;;;9.33;6.93;;;;;;;;;;5098732;28;20205;-65
2022/05/17 07:02:10;;;;;;;12.83;6.93;;;;;;;;;;5098761;28;20262;-65
2022/05/17 07:04:39;;;;;;;11.17;6.30;;;;;;;;;;5098860;28;20244;-66
2022/05/17 07:07:09;;;;;;;12.27;7.07;;;;;;;;;;5098721;28;20217;-65
2022/05/17 07:09:37;;;;;;;12.10;7.10;;;;;;;;;;5098699;28;20208;-65
2022/05/17 07:14:51;;;;;;;12.50;6.80;;;;;;;;;;5098552;28;20886;-65
2022/05/17 07:17:20;;;;;;;11.53;6.80;;;;;;;;;;5099490;28;20257;-65
2022/05/17 07:19:48;;;;;;;12.87;7.27;;;;;;;;;;5099205;28;20194;-66
2022/05/17 07:22:18;;;;;;;10.17;6.17;;;;;;;;;;5099061;28;20635;-66
2022/05/17 07:24:46;;;;;;;15.30;6.50;;;;;;;;;;5098882;28;20238;-65
2022/05/17 07:27:15;;;;;;;14.37;6.57;;;;;;;;;;5098627;28;20218;-70
2022/05/17 07:29:48;;;;;;;9.33;5.87;;;;;;;;;;5098735;28;20202;-68
2022/05/17 07:32:16;;;;;;;14.70;6.10;;;;;;;;;;5089526;28;20298;-70
2022/05/17 07:34:47;;;;;;;14.37;7.00;;;;;;;;;;5097846;28;20228;-69
2022/05/17 07:37:16;;;;;;;14.30;7.07;;;;;;;;;;5098962;28;20311;-66
2022/05/17 07:39:45;;;;;;;13.40;6.70;;;;;;;;;;5099025;28;20244;-68
2022/05/17 07:42:13;;;;;;;12.80;6.70;;;;;;;;;;5099229;28;20202;-67
2022/05/17 07:44:42;;;;;;;15.80;6.80;;;;;;;;;;5098601;28;20290;-67
2022/05/17 07:47:15;;;;;;;11.63;6.23;;;;;;;;;;5098788;28;20229;-68
2022/05/17 07:49:43;;;;;;;14.07;7.13;;;;;;;;;;5097468;28;20211;-68
2022/05/17 07:52:12;;;;;;;12.23;6.50;;;;;;;;;;5098986;28;20248;-67
2022/05/17 07:54:41;;;;;;;12.50;7.00;;;;;;;;;;5098401;28;20256;-68
2022/05/17 07:57:11;;;;;;;14.70;6.37;;;;;;;;;;5098562;28;20225;-68
2022/05/17 07:59:39;;;;;;;11.10;6.23;;;;;;;;;;5098148;28;20204;-67
2022/05/17 08:02:07;;;;;;;14.03;7.70;;;;;;;;;;5098372;28;20241;-67
2022/05/17 08:04:37;;;;;;;9.43;5.83;;;;;;;;;;5098021;28;20273;-67
2022/05/17 08:07:08;;;;;;;16.27;7.23;;;;;;;;;;5098167;28;20310;-68
2022/05/17 08:09:37;;;;;;;14.63;6.70;;;;;;;;;;5095228;28;20227;-68
2022/05/17 08:12:07;;;;;;;12.73;7.00;;;;;;;;;;5097885;28;20242;-67
2022/05/17 08:14:37;;;;;;;12.67;6.90;;;;;;;;;;5098290;28;20200;-67
2022/05/17 08:17:06;;;;;;;13.93;6.67;;;;;;;;;;5098418;28;20222;-67
2022/05/17 08:19:35;;;;;;;12.03;6.57;;;;;;;;;;5098301;28;20201;-66
2022/05/17 08:22:04;;;;;;;11.87;6.07;;;;;;;;;;5097575;28;20626;-67
2022/05/17 08:27:31;;;;;;;13.40;6.60;;;;;;;;;;5097833;28;20253;-67
2022/05/17 08:27:36;;;;;;;15.80;5.97;;;;;;;;;;5097275;28;20259;-67
2022/05/17 08:30:09;;;;;;;19.53;6.20;;;;;;;;;;5097578;28;20232;-67
2022/05/17 08:35:30;;;;;;;13.67;6.27;;;;;;;;;;5095704;28;20228;-66
2022/05/17 08:37:58;;;;;;;12.17;6.80;;;;;;;;;;5097621;28;20202;-67
2022/05/17 08:40:27;;;;;;;11.47;5.37;;;;;;;;;;5097289;28;20644;-67
2022/05/17 08:43:04;;;;;;;11.07;5.13;;;;;;;;;;5094987;28;20229;-67
2022/05/17 08:45:37;;;;;;;9.93;5.43;;;;;;;;;;5096444;28;20225;-66
2022/05/17 08:48:08;;;;;;;10.27;4.70;;;;;;;;;;5097082;28;20242;-67
2022/05/17 08:50:38;;;;;;;8.53;4.80;;;;;;;;;;5096408;28;20204;-67
2022/05/17 08:53:11;;;;;;;6.43;4.93;;;;;;;;;;5097012;28;20230;-67
2022/05/17 08:55:40;;;;;;;15.30;7.60;;;;;;;;;;5097404;28;20254;-68
2022/05/17 08:58:12;;;;;;;9.30;5.60;;;;;;;;;;5097064;28;20197;-67
2022/05/17 09:00:43;;;;;;;11.13;5.00;;;;;;;;;;5095999;28;20229;-66
2022/05/17 09:03:18;;;;;;;10.00;4.60;;;;;;;;;;5097169;28;20229;-66
2022/05/17 09:05:49;;;;;;;8.50;4.30;;;;;;;;;;5095278;28;20734;-66
2022/05/17 09:08:25;;;;;;;10.00;5.20;;;;;;;;;;5096465;28;20233;-73
2022/05/17 09:10:54;;;;;;;10.83;4.10;;;;;;;;;;5096688;28;20209;-73
2022/05/17 09:13:26;;;;;;;6.77;5.20;;;;;;;;;;5096725;28;20211;-74
2022/05/17 09:15:56;;;;;;;9.83;5.90;;;;;;;;;;5096889;28;20272;-74
2022/05/17 09:18:26;;;;;;;6.80;4.80;;;;;;;;;;5097203;28;20665;-73
2022/05/17 09:20:54;;;;;;;11.80;5.00;;;;;;;;;;5097385;28;20265;-71
2022/05/17 09:23:22;;;;;;;9.90;5.23;;;;;;;;;;5097436;28;20232;-73
2022/05/17 09:26:03;;;;;;;13.87;6.20;;;;;;;;;;5097042;28;20234;-74
2022/05/17 09:28:46;;;;;;;14.03;5.40;;;;;;;;;;5096955;28;20203;-72
2022/05/17 09:31:17;;;;;;;10.17;5.03;;;;;;;;;;5096905;28;20735;-71
2022/05/17 09:33:45;;;;;;;9.33;4.83;;;;;;;;;;5097035;28;20299;-72
2022/05/17 09:36:18;;;;;;;11.57;5.47;;;;;;;;;;5096980;28;20228;-72
2022/05/17 09:38:47;;;;;;;12.03;5.43;;;;;;;;;;5097047;28;20698;-72
2022/05/17 09:41:17;;;;;;;6.63;4.53;;;;;;;;;;5097058;28;20208;-72
2022/05/17 09:43:50;;;;;;;10.20;5.60;;;;;;;;;;5097210;28;20238;-75
2022/05/17 09:46:30;;;;;;;5.67;4.30;;;;;;;;;;5096812;28;20279;-74
2022/05/17 09:54:39;;;;;;;10.93;4.70;;;;;;;;;;5097154;28;20210;-72
2022/05/17 09:57:11;;;;;;;9.77;5.67;;;;;;;;;;5096866;28;20258;-72
2022/05/17 09:59:39;;;;;;;11.17;4.33;;;;;;;;;;5096943;28;20213;-72
2022/05/17 10:02:25;;;;;;;14.43;5.07;;;;;;;;;;5096748;28;20252;-72
2022/05/17 10:04:54;;;;;;;7.90;4.43;;;;;;;;;;5096870;28;20288;-72
2022/05/17 10:07:23;;;;;;;12.63;5.40;;;;;;;;;;5096545;28;20781;-72
2022/05/17 10:09:51;;;;;;;11.60;5.00;;;;;;;;;;5096722;28;20212;-72
2022/05/17 10:12:21;;;;;;;8.73;4.70;;;;;;;;;;5096938;28;20216;-63
2022/05/17 10:14:52;;;;;;;8.10;4.30;;;;;;;;;;5096370;28;20205;-66
2022/05/17 10:17:26;;;;;;;5.87;3.90;;;;;;;;;;5096758;28;20262;-66
2022/05/17 10:19:56;;;;;;;7.47;4.33;;;;;;;;;;5096679;28;20572;-66
2022/05/17 10:22:28;;;;;;;9.40;5.17;;;;;;;;;;5097249;28;20607;-66
2022/05/17 10:24:58;;;;;;;8.43;4.60;;;;;;;;;;5096504;28;20252;-65
2022/05/17 10:27:28;;;;;;;5.77;4.00;;;;;;;;;;5099303;28;20253;-65
2022/05/17 10:29:57;;;;;;;8.77;4.30;;;;;;;;;;5096183;28;20229;-65
2022/05/17 10:32:31;;;;;;;6.83;3.47;;;;;;;;;;5099198;28;20194;-66
2022/05/17 10:35:11;;;;;;;9.17;4.30;;;;;;;;;;5097700;28;20567;-64
2022/05/17 10:37:46;;;;;;;10.60;3.90;;;;;;;;;;5096680;28;20632;-63
2022/05/17 10:40:15;;;;;;;5.17;3.63;;;;;;;;;;5099027;28;20196;-63
2022/05/17 10:42:44;;;;;;;8.80;3.97;;;;;;;;;;5099124;28;20202;-64
2022/05/17 10:45:19;;;;;;;7.90;4.03;;;;;;;;;;5098239;28;20664;-64
2022/05/17 10:47:52;;;;;;;6.70;4.00;;;;;;;;;;5099258;28;20205;-64
2022/05/17 10:50:26;;;;;;;5.33;3.30;;;;;;;;;;5095432;28;20210;-63
2022/05/17 10:53:06;;;;;;;5.37;3.60;;;;;;;;;;5099405;28;20239;-64
2022/05/17 10:55:41;;;;;;;12.10;4.03;;;;;;;;;;5097619;28;20215;-64
2022/05/17 10:58:13;;;;;;;6.27;3.63;;;;;;;;;;5088028;28;20640;-69
2022/05/17 11:00:44;;;;;;;7.03;3.50;;;;;;;;;;5099024;28;20665;-66
2022/05/17 11:03:32;;;;;;;8.33;3.30;;;;;;;;;;5096759;28;20241;-65
2022/05/17 11:06:07;;;;;;;5.17;2.77;;;;;;;;;;5097396;28;20308;-65
2022/05/17 11:08:38;;;;;;;7.33;3.67;;;;;;;;;;5097477;28;20194;-65
2022/05/17 11:11:11;;;;;;;6.80;3.47;;;;;;;;;;5098636;28;20632;-65
2022/05/17 11:13:46;;;;;;;7.50;3.80;;;;;;;;;;5099206;28;20195;-63
2022/05/17 11:16:20;;;;;;;7.77;4.13;;;;;;;;;;5098247;28;20222;-63
2022/05/17 11:18:52;;;;;;;8.87;4.00;;;;;;;;;;5098668;28;20663;-63
2022/05/17 11:21:25;;;;;;;7.03;3.27;;;;;;;;;;5095383;28;20249;-64
2022/05/17 11:23:55;;;;;;;5.47;3.20;;;;;;;;;;5096282;28;20234;-66
2022/05/17 11:26:52;;;;;;;6.60;3.40;;;;;;;;;;5098488;28;20274;-65
2022/05/17 11:29:44;;;;;;;7.03;3.43;;;;;;;;;;5097189;28;20201;-65
2022/05/17 11:32:17;;;;;;;7.67;3.20;;;;;;;;;;5084172;28;20248;-66
2022/05/17 11:34:46;;;;;;;5.60;3.87;;;;;;;;;;5095638;28;20739;-67
2022/05/17 11:37:29;;;;;;;7.37;3.63;;;;;;;;;;5096272;28;20225;-66
2022/05/17 11:39:57;;;;;;;8.33;4.17;;;;;;;;;;5098609;28;21357;-66
2022/05/17 11:42:27;;;;;;;4.17;3.23;;;;;;;;;;5098940;28;20237;-65
2022/05/17 11:44:55;;;;;;;6.73;3.33;;;;;;;;;;5098773;28;20206;-66
2022/05/17 11:47:32;;;;;;;7.63;3.77;;;;;;;;;;5098818;28;21038;-63
2022/05/17 11:50:22;;;;;;;9.43;3.40;;;;;;;;;;5095305;28;20241;-64
2022/05/17 11:52:57;;;;;;;11.00;3.53;;;;;;;;;;5094933;28;20272;-64
2022/05/17 11:55:28;;;;;;;9.37;4.17;;;;;;;;;;5098838;28;20229;-64
2022/05/17 11:57:58;;;;;;;6.23;3.93;;;;;;;;;;5098272;28;20248;-73
2022/05/17 12:00:37;;;;;;;4.30;3.00;;;;;;;;;;5097204;28;20254;-74
2022/05/17 12:03:05;;;;;;;5.90;3.27;;;;;;;;;;5095151;28;20674;-72
2022/05/17 12:05:54;;;;;;;8.83;3.77;;;;;;;;;;5097104;28;20322;-73
2022/05/17 12:08:30;;;;;;;5.30;2.90;;;;;;;;;;5093403;28;20223;-71
2022/05/17 12:11:00;;;;;;;7.23;3.30;;;;;;;;;;5096826;28;20218;-72
2022/05/17 12:13:29;;;;;;;8.73;3.53;;;;;;;;;;5097064;28;20694;-72
2022/05/17 12:15:57;;;;;;;6.17;3.27;;;;;;;;;;5095867;28;20638;-72
2022/05/17 12:18:34;;;;;;;9.40;3.43;;;;;;;;;;5098018;28;20299;-72
2022/05/17 12:21:19;;;;;;;5.37;3.23;;;;;;;;;;5098492;28;20238;-72
2022/05/17 12:23:53;;;;;;;6.20;2.80;;;;;;;;;;5088354;28;20203;-72
2022/05/17 12:26:24;;;;;;;7.50;2.70;;;;;;;;;;5098234;28;20235;-74
2022/05/17 12:28:53;;;;;;;5.77;3.07;;;;;;;;;;5098604;28;20242;-73
2022/05/17 12:31:25;;;;;;;5.80;2.47;;;;;;;;;;5097890;28;20277;-72
2022/05/17 12:33:55;;;;;;;7.13;2.67;;;;;;;;;;5098562;28;20279;-65
2022/05/17 12:36:24;;;;;;;3.43;2.80;;;;;;;;;;5094413;28;20249;-65
2022/05/17 12:44:29;;;;;;;6.67;2.87;;;;;;;;;;5096803;28;20209;-64
2022/05/17 12:46:58;;;;;;;5.33;2.80;;;;;;;;;;5097765;28;20262;-65
2022/05/17 12:49:27;;;;;;;5.27;2.47;;;;;;;;;;5097099;28;20286;-65
2022/05/17 12:51:56;;;;;;;4.80;2.80;;;;;;;;;;5096769;28;20214;-65
2022/05/17 12:54:27;;;;;;;5.07;2.27;;;;;;;;;;5096687;28;20294;-64
2022/05/17 12:57:19;;;;;;;4.80;2.90;;;;;;;;;;5089212;28;20278;-63
2022/05/17 12:59:47;;;;;;;8.47;3.17;;;;;;;;;;5093920;28;20238;-62
2022/05/17 13:02:21;;;;;;;2.77;2.40;;;;;;;;;;5097039;28;20652;-63
2022/05/17 13:04:51;;;;;;;8.10;2.67;;;;;;;;;;5095762;28;20235;-62
2022/05/17 13:07:22;;;;;;;4.13;2.60;;;;;;;;;;5097632;28;20357;-65
2022/05/17 13:09:56;;;;;;;4.93;2.23;;;;;;;;;;5097379;28;20209;-63
2022/05/17 13:12:25;;;;;;;7.27;2.93;;;;;;;;;;5097859;28;20248;-65
2022/05/17 13:14:53;;;;;;;4.10;2.73;;;;;;;;;;5097042;28;20235;-65
2022/05/17 13:17:22;;;;;;;9.40;2.53;;;;;;;;;;5096980;28;20302;-65
2022/05/17 13:19:51;;;;;;;7.33;2.77;;;;;;;;;;5096978;28;20205;-63
2022/05/17 13:22:21;;;;;;;6.20;2.63;;;;;;;;;;5096948;28;20201;-65
2022/05/17 13:24:50;;;;;;;5.47;2.77;;;;;;;;;;5096611;28;20204;-65
2022/05/17 13:27:26;;;;;;;4.63;2.70;;;;;;;;;;5096981;28;20235;-64
2022/05/17 13:29:55;;;;;;;4.73;2.93;;;;;;;;;;5096496;28;20634;-65
2022/05/17 13:32:23;;;;;;;5.90;2.43;;;;;;;;;;5088029;28;20212;-64
2022/05/17 13:35:10;;;;;;;4.97;2.50;;;;;;;;;;5097476;28;20269;-62
2022/05/17 13:37:53;;;;;;;6.43;2.83;;;;;;;;;;5097292;28;20202;-62
2022/05/17 13:40:34;;;;;;;3.60;2.40;;;;;;;;;;5097574;28;20205;-63
2022/05/17 13:43:17;;;;;;;6.50;2.47;;;;;;;;;;5097099;28;20229;-63
2022/05/17 13:45:57;;;;;;;5.60;2.50;;;;;;;;;;5097013;28;20260;-64
2022/05/17 13:48:26;;;;;;;8.47;2.60;;;;;;;;;;5097097;28;20229;-63
2022/05/17 13:50:54;;;;;;;4.70;2.85;;;;;;;;;;5096955;28;20334;-64
2022/05/17 13:53:22;;;;;;;3.25;2.50;;;;;;;;;;5097296;28;20245;-63
2022/05/17 13:55:50;;;;;;;4.30;3.00;;;;;;;;;;5097240;28;20305;-64
2022/05/17 13:58:23;;;;;;;7.43;2.55;;;;;;;;;;5100391;28;20200;-64
2022/05/17 14:01:06;;;;;;;8.73;3.42;;;;;;;;;;5099970;28;20719;-64
2022/05/17 14:03:34;;;;;;;5.00;2.83;;;;;;;;;;5098133;28;20209;-67
2022/05/17 14:06:11;;;;;;;428.20;263.67;;;;;;;;;;5100793;28;20230;-64
2022/05/17 14:14:14;;;;;;;6.33;3.33;;;;;;;;;;5099280;28;20340;-74
2022/05/17 14:16:44;;;;;;;6.43;3.10;;;;;;;;;;5100596;28;20217;-74
2022/05/17 14:19:15;;;;;;;4.03;2.50;;;;;;;;;;5100852;28;20240;-74
2022/05/17 14:21:44;;;;;;;5.68;2.53;;;;;;;;;;5100754;28;20251;-72
2022/05/17 14:24:15;;;;;;;5.85;3.50;;;;;;;;;;5100181;28;20236;-74
2022/05/17 14:26:44;;;;;;;7.47;2.42;;;;;;;;;;5100657;28;20227;-74
2022/05/17 14:29:13;;;;;;;4.50;2.93;;;;;;;;;;5100538;28;20210;-74
2022/05/17 14:31:42;;;;;;;4.82;2.45;;;;;;;;;;5091432;28;20236;-74
2022/05/17 14:34:30;;;;;;;4.95;2.83;;;;;;;;;;5097134;28;20222;-74
2022/05/17 14:36:59;;;;;;;3.75;2.25;;;;;;;;;;5100108;28;20262;-76
2022/05/17 14:39:27;;;;;;;5.00;2.65;;;;;;;;;;5099685;28;20617;-75
2022/05/17 14:41:55;;;;;;;3.75;3.00;;;;;;;;;;5099961;28;20264;-74
2022/05/17 14:44:26;;;;;;;3.97;2.97;;;;;;;;;;5099673;28;20238;-73
2022/05/17 14:46:57;;;;;;;3.20;2.50;;;;;;;;;;5099862;28;20288;-74
2022/05/17 14:49:28;;;;;;;5.87;2.80;;;;;;;;;;5098424;28;20230;-73
2022/05/17 14:51:57;;;;;;;5.57;2.73;;;;;;;;;;5099513;28;20208;-73
2022/05/17 14:54:25;;;;;;;7.40;2.93;;;;;;;;;;5098965;28;20230;-73
2022/05/17 14:56:53;;;;;;;3.87;2.57;;;;;;;;;;5099291;28;20233;-75
2022/05/17 14:59:21;;;;;;;4.20;2.73;;;;;;;;;;5099163;28;20284;-74
2022/05/17 15:01:51;;;;;;;4.03;2.67;;;;;;;;;;5098833;28;20229;-74
2022/05/17 15:04:22;;;;;;;6.33;3.10;;;;;;;;;;5099335;28;20631;-73
2022/05/17 15:06:55;;;;;;;4.60;2.50;;;;;;;;;;5099367;28;20244;-73
2022/05/17 15:09:24;;;;;;;4.50;2.50;;;;;;;;;;5098806;28;20209;-72
2022/05/17 15:12:02;;;;;;;4.07;2.30;;;;;;;;;;5097760;28;20709;-72
2022/05/17 15:14:30;;;;;;;8.17;2.67;;;;;;;;;;5098839;28;20204;-72
2022/05/17 15:16:59;;;;;;;5.37;2.60;;;;;;;;;;5098885;28;20261;-72
2022/05/17 15:19:30;;;;;;;5.53;3.10;;;;;;;;;;5098853;28;20251;-72
2022/05/17 15:22:04;;;;;;;9.63;2.87;;;;;;;;;;5097697;28;20543;-72
2022/05/17 15:24:32;;;;;;;3.43;2.30;;;;;;;;;;5098999;28;20226;-74
2022/05/17 15:27:00;;;;;;;7.80;2.20;;;;;;;;;;5098858;28;20222;-72
2022/05/17 15:29:28;;;;;;;3.90;2.37;;;;;;;;;;5098434;28;20204;-72